RYR83RY LFOB-LDZD
Flight info
| Callsign | RYR83RY |
|---|---|
| Flight time | 1h 36m |
| Altitude | 37000 |
| Route | LANVI DCT BEGAR DCT TRA DCT SUXAN DCT DIBAX DCT PEVAL DCT LOS |
| Aircraft | B738/M-SDE2E3FGHIRWXY/LB1 |
Departure
| Time | 2026-05-05 14:35 |
|---|---|
| Airport | Beauvais-Tillé airport (LFOB) |
Arrival
| Time | 2026-05-05 16:11 |
|---|---|
| Airport | Zadar Airport (LDZD) |
| Time | Latitude | Longitude | Altitude | Speed | Heading |
|---|---|---|---|---|---|
| 2026-05-05 14:12 | 49.45957 | 2.11516 | 355 ft | 0 kts | 311° |
| 2026-05-05 14:27 | 49.45945 | 2.11536 | 358 ft | 4 kts | 311° |
| 2026-05-05 14:27 | 49.45930 | 2.11562 | 357 ft | 4 kts | 306° |
| 2026-05-05 14:28 | 49.45920 | 2.11596 | 357 ft | 4 kts | 260° |
| 2026-05-05 14:28 | 49.45932 | 2.11630 | 360 ft | 4 kts | 223° |
| 2026-05-05 14:28 | 49.45936 | 2.11636 | 360 ft | 1 kts | 221° |
| 2026-05-05 14:29 | 49.45936 | 2.11635 | 360 ft | 0 kts | 221° |
| 2026-05-05 14:30 | 49.45925 | 2.11622 | 357 ft | 5 kts | 221° |
| 2026-05-05 14:30 | 49.45880 | 2.11561 | 354 ft | 12 kts | 222° |
| 2026-05-05 14:30 | 49.45799 | 2.11508 | 346 ft | 14 kts | 155° |
| 2026-05-05 14:30 | 49.45730 | 2.11609 | 352 ft | 13 kts | 143° |
| 2026-05-05 14:31 | 49.45659 | 2.11576 | 349 ft | 9 kts | 221° |
| 2026-05-05 14:31 | 49.45612 | 2.11514 | 352 ft | 9 kts | 221° |
| 2026-05-05 14:31 | 49.45560 | 2.11443 | 342 ft | 12 kts | 221° |
| 2026-05-05 14:31 | 49.45480 | 2.11333 | 340 ft | 19 kts | 213° |
| 2026-05-05 14:32 | 49.45378 | 2.11435 | 334 ft | 21 kts | 124° |
| 2026-05-05 14:32 | 49.45289 | 2.11635 | 336 ft | 24 kts | 124° |
| 2026-05-05 14:32 | 49.45187 | 2.11872 | 333 ft | 27 kts | 123° |
| 2026-05-05 14:32 | 49.45085 | 2.12105 | 332 ft | 25 kts | 124° |
| 2026-05-05 14:33 | 49.44989 | 2.12323 | 326 ft | 24 kts | 123° |
| 2026-05-05 14:33 | 49.44900 | 2.12528 | 323 ft | 23 kts | 124° |
| 2026-05-05 14:33 | 49.44814 | 2.12728 | 317 ft | 22 kts | 124° |
| 2026-05-05 14:33 | 49.44730 | 2.12920 | 313 ft | 21 kts | 123° |
| 2026-05-05 14:34 | 49.44673 | 2.13122 | 310 ft | 18 kts | 94° |
| 2026-05-05 14:34 | 49.44663 | 2.13173 | 310 ft | 0 kts | 137° |
| 2026-05-05 14:34 | 49.44639 | 2.13173 | 309 ft | 9 kts | 215° |
| 2026-05-05 14:34 | 49.44675 | 2.13048 | 311 ft | 34 kts | 303° |
| 2026-05-05 14:35 | 49.44937 | 2.12447 | 323 ft | 101 kts | 304° |
| 2026-05-05 14:35 | 49.45253 | 2.11720 | 333 ft | 140 kts | 304° |
| 2026-05-05 14:35 | 49.46060 | 2.09816 | 906 ft | 165 kts | 307° |
| 2026-05-05 14:35 | 49.46735 | 2.08429 | 1768 ft | 162 kts | 316° |
| 2026-05-05 14:36 | 49.47274 | 2.07561 | 2123 ft | 174 kts | 326° |
| 2026-05-05 14:36 | 49.48869 | 2.06518 | 2448 ft | 206 kts | 354° |
| 2026-05-05 14:36 | 49.49865 | 2.06474 | 2607 ft | 219 kts | 7° |
| 2026-05-05 14:36 | 49.51384 | 2.07164 | 2954 ft | 237 kts | 29° |
| 2026-05-05 14:37 | 49.52955 | 2.09557 | 3990 ft | 247 kts | 60° |
| 2026-05-05 14:37 | 49.53351 | 2.11249 | 4607 ft | 252 kts | 78° |
| 2026-05-05 14:37 | 49.53251 | 2.13965 | 5483 ft | 261 kts | 105° |
| 2026-05-05 14:37 | 49.52407 | 2.16474 | 6391 ft | 268 kts | 120° |
| 2026-05-05 14:38 | 49.51383 | 2.18894 | 7206 ft | 272 kts | 119° |
| 2026-05-05 14:38 | 49.50366 | 2.21358 | 8095 ft | 274 kts | 118° |
| 2026-05-05 14:38 | 49.49375 | 2.23858 | 9031 ft | 274 kts | 118° |
| 2026-05-05 14:38 | 49.48449 | 2.26433 | 9883 ft | 278 kts | 113° |
| 2026-05-05 14:39 | 49.47633 | 2.29203 | 10345 ft | 295 kts | 111° |
| 2026-05-05 14:39 | 49.46791 | 2.32237 | 10540 ft | 321 kts | 111° |
| 2026-05-05 14:39 | 49.45903 | 2.35447 | 11091 ft | 331 kts | 111° |
| 2026-05-05 14:39 | 49.44987 | 2.38730 | 11822 ft | 336 kts | 111° |
| 2026-05-05 14:40 | 49.44056 | 2.42030 | 12668 ft | 339 kts | 112° |
| 2026-05-05 14:40 | 49.43106 | 2.45373 | 13396 ft | 344 kts | 112° |
| 2026-05-05 14:40 | 49.42137 | 2.48760 | 14084 ft | 348 kts | 112° |
| 2026-05-05 14:40 | 49.41159 | 2.52158 | 14845 ft | 349 kts | 113° |
| 2026-05-05 14:41 | 49.40169 | 2.55587 | 15547 ft | 352 kts | 113° |
| 2026-05-05 14:41 | 49.39219 | 2.59055 | 16249 ft | 355 kts | 107° |
| 2026-05-05 14:41 | 49.38717 | 2.62768 | 16970 ft | 358 kts | 99° |
| 2026-05-05 14:41 | 49.38421 | 2.66595 | 17564 ft | 364 kts | 96° |
| 2026-05-05 14:42 | 49.38216 | 2.70479 | 18240 ft | 366 kts | 95° |
| 2026-05-05 14:42 | 49.38044 | 2.74394 | 18839 ft | 369 kts | 95° |
| 2026-05-05 14:42 | 49.37876 | 2.78355 | 19355 ft | 374 kts | 95° |
| 2026-05-05 14:42 | 49.37708 | 2.82358 | 19896 ft | 377 kts | 95° |
| 2026-05-05 14:43 | 49.37544 | 2.86368 | 20585 ft | 374 kts | 95° |
| 2026-05-05 14:43 | 49.37386 | 2.90270 | 21743 ft | 360 kts | 95° |
| 2026-05-05 14:43 | 49.37231 | 2.94091 | 22498 ft | 358 kts | 94° |
| 2026-05-05 14:43 | 49.37073 | 2.97916 | 23045 ft | 362 kts | 96° |
| 2026-05-05 14:44 | 49.36862 | 3.01805 | 23429 ft | 368 kts | 96° |
| 2026-05-05 14:44 | 49.36629 | 3.05735 | 23865 ft | 371 kts | 99° |
| 2026-05-05 14:44 | 49.36056 | 3.09581 | 24412 ft | 368 kts | 106° |
| 2026-05-05 14:44 | 49.35355 | 3.13374 | 24819 ft | 373 kts | 108° |
| 2026-05-05 14:45 | 49.34540 | 3.17194 | 25041 ft | 382 kts | 113° |
| 2026-05-05 14:45 | 49.33304 | 3.20861 | 25147 ft | 393 kts | 123° |
| 2026-05-05 14:45 | 49.31811 | 3.24435 | 25328 ft | 402 kts | 124° |
| 2026-05-05 14:45 | 49.30278 | 3.28010 | 25537 ft | 410 kts | 124° |
| 2026-05-05 14:46 | 49.28704 | 3.31678 | 25927 ft | 413 kts | 124° |
| 2026-05-05 14:46 | 49.27137 | 3.35355 | 26422 ft | 413 kts | 124° |
| 2026-05-05 14:46 | 49.25563 | 3.39077 | 26675 ft | 419 kts | 124° |
| 2026-05-05 14:46 | 49.23985 | 3.42826 | 27142 ft | 420 kts | 123° |
| 2026-05-05 14:47 | 49.22403 | 3.46597 | 27516 ft | 423 kts | 123° |
| 2026-05-05 14:47 | 49.20810 | 3.50397 | 27854 ft | 426 kts | 123° |
| 2026-05-05 14:47 | 49.19206 | 3.54221 | 28190 ft | 428 kts | 123° |
| 2026-05-05 14:47 | 49.17599 | 3.58049 | 28702 ft | 427 kts | 123° |
| 2026-05-05 14:48 | 49.15995 | 3.61862 | 29134 ft | 427 kts | 123° |
| 2026-05-05 14:48 | 49.14382 | 3.65692 | 29435 ft | 431 kts | 123° |
| 2026-05-05 14:48 | 49.12751 | 3.69556 | 29721 ft | 434 kts | 123° |
| 2026-05-05 14:48 | 49.11110 | 3.73440 | 30022 ft | 436 kts | 123° |
| 2026-05-05 14:49 | 49.09464 | 3.77329 | 30411 ft | 436 kts | 124° |
| 2026-05-05 14:49 | 49.07824 | 3.81199 | 30879 ft | 433 kts | 124° |
| 2026-05-05 14:49 | 49.06196 | 3.85036 | 31360 ft | 429 kts | 124° |
| 2026-05-05 14:49 | 49.04580 | 3.88838 | 31798 ft | 427 kts | 124° |
| 2026-05-05 14:50 | 49.02968 | 3.92626 | 32165 ft | 426 kts | 124° |
| 2026-05-05 14:50 | 49.01354 | 3.96412 | 32529 ft | 425 kts | 124° |
| 2026-05-05 14:50 | 48.99747 | 4.00177 | 32925 ft | 423 kts | 124° |
| 2026-05-05 14:50 | 48.98146 | 4.03923 | 33343 ft | 421 kts | 124° |
| 2026-05-05 14:51 | 48.96551 | 4.07648 | 33731 ft | 419 kts | 124° |
| 2026-05-05 14:51 | 48.94957 | 4.11368 | 34011 ft | 419 kts | 124° |
| 2026-05-05 14:51 | 48.93383 | 4.15038 | 34191 ft | 421 kts | 124° |
| 2026-05-05 14:51 | 48.91778 | 4.18773 | 34365 ft | 423 kts | 124° |
| 2026-05-05 14:52 | 48.90168 | 4.22524 | 34594 ft | 424 kts | 123° |
| 2026-05-05 14:52 | 48.88662 | 4.26382 | 34869 ft | 425 kts | 121° |
| 2026-05-05 14:52 | 48.87218 | 4.30305 | 35108 ft | 427 kts | 120° |
| 2026-05-05 14:52 | 48.85789 | 4.34272 | 35351 ft | 429 kts | 120° |
| 2026-05-05 14:53 | 48.84358 | 4.38250 | 35577 ft | 430 kts | 120° |
| 2026-05-05 14:53 | 48.82921 | 4.42229 | 35830 ft | 430 kts | 121° |
| 2026-05-05 14:53 | 48.81473 | 4.46213 | 36001 ft | 432 kts | 121° |
| 2026-05-05 14:53 | 48.80014 | 4.50205 | 36177 ft | 433 kts | 121° |
| 2026-05-05 14:54 | 48.78548 | 4.54195 | 36371 ft | 434 kts | 121° |
| 2026-05-05 14:54 | 48.77077 | 4.58189 | 36570 ft | 434 kts | 121° |
| 2026-05-05 14:54 | 48.75600 | 4.62188 | 36733 ft | 436 kts | 121° |
| 2026-05-05 14:54 | 48.74113 | 4.66207 | 36791 ft | 439 kts | 121° |
| 2026-05-05 14:55 | 48.71104 | 4.74322 | 36805 ft | 443 kts | 121° |
| 2026-05-05 14:55 | 48.68090 | 4.82431 | 36793 ft | 441 kts | 122° |
| 2026-05-05 14:56 | 48.65079 | 4.90504 | 36796 ft | 440 kts | 122° |
| 2026-05-05 14:56 | 48.62069 | 4.98550 | 36805 ft | 439 kts | 122° |
| 2026-05-05 14:57 | 48.59061 | 5.06568 | 36801 ft | 438 kts | 122° |
| 2026-05-05 14:57 | 48.56052 | 5.14563 | 36802 ft | 438 kts | 122° |
| 2026-05-05 14:58 | 48.53041 | 5.22539 | 36795 ft | 437 kts | 122° |
| 2026-05-05 14:58 | 48.50038 | 5.30469 | 36801 ft | 439 kts | 122° |
| 2026-05-05 14:59 | 48.46986 | 5.38504 | 36799 ft | 439 kts | 122° |
| 2026-05-05 14:59 | 48.43967 | 5.46429 | 36807 ft | 439 kts | 123° |
| 2026-05-05 15:00 | 48.41418 | 5.53106 | 36813 ft | 439 kts | 123° |
| 2026-05-05 15:00 | 48.37870 | 5.62367 | 36802 ft | 440 kts | 123° |
| 2026-05-05 15:01 | 48.34813 | 5.70327 | 36819 ft | 439 kts | 123° |
| 2026-05-05 15:01 | 48.31754 | 5.78291 | 36827 ft | 442 kts | 121° |
| 2026-05-05 15:02 | 48.29507 | 5.86939 | 36835 ft | 447 kts | 111° |
| 2026-05-05 15:02 | 48.27625 | 5.95843 | 36821 ft | 447 kts | 111° |
| 2026-05-05 15:03 | 48.25724 | 6.04730 | 36817 ft | 447 kts | 111° |
| 2026-05-05 15:03 | 48.23790 | 6.13588 | 36828 ft | 446 kts | 111° |
| 2026-05-05 15:04 | 48.21841 | 6.22419 | 36827 ft | 446 kts | 112° |
| 2026-05-05 15:04 | 48.19886 | 6.31231 | 36836 ft | 445 kts | 112° |
| 2026-05-05 15:05 | 48.16949 | 6.44409 | 36818 ft | 444 kts | 112° |
| 2026-05-05 15:06 | 48.14987 | 6.53168 | 36836 ft | 443 kts | 112° |
| 2026-05-05 15:06 | 48.13021 | 6.61908 | 36838 ft | 443 kts | 112° |
| 2026-05-05 15:07 | 48.11048 | 6.70639 | 36846 ft | 443 kts | 112° |
| 2026-05-05 15:07 | 48.09064 | 6.79387 | 36848 ft | 445 kts | 112° |
| 2026-05-05 15:08 | 48.07067 | 6.88156 | 36844 ft | 445 kts | 112° |
| 2026-05-05 15:08 | 48.05075 | 6.96868 | 36836 ft | 446 kts | 112° |
| 2026-05-05 15:09 | 48.03062 | 7.05630 | 36836 ft | 446 kts | 112° |
| 2026-05-05 15:09 | 48.01042 | 7.14398 | 36832 ft | 446 kts | 112° |
| 2026-05-05 15:10 | 47.99015 | 7.23155 | 36810 ft | 446 kts | 113° |
| 2026-05-05 15:10 | 47.96980 | 7.31912 | 36829 ft | 446 kts | 113° |
| 2026-05-05 15:11 | 47.94937 | 7.40665 | 36849 ft | 447 kts | 113° |
| 2026-05-05 15:11 | 47.92886 | 7.49427 | 36837 ft | 448 kts | 113° |
| 2026-05-05 15:12 | 47.90825 | 7.58190 | 36846 ft | 448 kts | 113° |
| 2026-05-05 15:12 | 47.88674 | 7.66908 | 36836 ft | 448 kts | 115° |
| 2026-05-05 15:13 | 47.86462 | 7.75592 | 36851 ft | 449 kts | 115° |
| 2026-05-05 15:13 | 47.84248 | 7.84288 | 36867 ft | 450 kts | 115° |
| 2026-05-05 15:14 | 47.82031 | 7.93010 | 36849 ft | 451 kts | 115° |
| 2026-05-05 15:14 | 47.79810 | 8.01731 | 36865 ft | 451 kts | 115° |
| 2026-05-05 15:15 | 47.77580 | 8.10452 | 36862 ft | 451 kts | 115° |
| 2026-05-05 15:15 | 47.75345 | 8.19157 | 36872 ft | 451 kts | 115° |
| 2026-05-05 15:16 | 47.73102 | 8.27862 | 36851 ft | 452 kts | 115° |
| 2026-05-05 15:16 | 47.70851 | 8.36567 | 36869 ft | 451 kts | 115° |
| 2026-05-05 15:17 | 47.68302 | 8.45021 | 36846 ft | 444 kts | 127° |
| 2026-05-05 15:17 | 47.64581 | 8.52229 | 36865 ft | 440 kts | 133° |
| 2026-05-05 15:18 | 47.60751 | 8.59239 | 36855 ft | 441 kts | 133° |
| 2026-05-05 15:18 | 47.56913 | 8.66317 | 36861 ft | 441 kts | 133° |
| 2026-05-05 15:19 | 47.53080 | 8.73430 | 36862 ft | 442 kts | 133° |
| 2026-05-05 15:19 | 47.49246 | 8.80551 | 36837 ft | 443 kts | 133° |
| 2026-05-05 15:20 | 47.45407 | 8.87666 | 36842 ft | 443 kts | 133° |
| 2026-05-05 15:20 | 47.41556 | 8.94780 | 36851 ft | 444 kts | 133° |
| 2026-05-05 15:21 | 47.37695 | 9.01894 | 36864 ft | 445 kts | 134° |
| 2026-05-05 15:21 | 47.33820 | 9.09015 | 36866 ft | 445 kts | 134° |
| 2026-05-05 15:22 | 47.29934 | 9.16139 | 36835 ft | 446 kts | 134° |
| 2026-05-05 15:22 | 47.26048 | 9.23242 | 36854 ft | 445 kts | 134° |
| 2026-05-05 15:23 | 47.22809 | 9.29147 | 36849 ft | 447 kts | 134° |
| 2026-05-05 15:23 | 47.18899 | 9.36262 | 36826 ft | 447 kts | 134° |
| 2026-05-05 15:24 | 47.14990 | 9.43358 | 36824 ft | 446 kts | 135° |
| 2026-05-05 15:24 | 47.11096 | 9.50408 | 36843 ft | 444 kts | 135° |
| 2026-05-05 15:25 | 47.07187 | 9.57461 | 36853 ft | 447 kts | 135° |
| 2026-05-05 15:25 | 47.03241 | 9.64561 | 36860 ft | 451 kts | 135° |
| 2026-05-05 15:26 | 46.99264 | 9.71705 | 36862 ft | 454 kts | 135° |
| 2026-05-05 15:26 | 46.95267 | 9.78869 | 36867 ft | 455 kts | 135° |
| 2026-05-05 15:27 | 46.91254 | 9.86040 | 36854 ft | 456 kts | 135° |
| 2026-05-05 15:27 | 46.87230 | 9.93211 | 36891 ft | 456 kts | 135° |
| 2026-05-05 15:28 | 46.83200 | 10.00375 | 36928 ft | 456 kts | 135° |
| 2026-05-05 15:28 | 46.79164 | 10.07529 | 36909 ft | 457 kts | 135° |
| 2026-05-05 15:29 | 46.75126 | 10.14666 | 36928 ft | 455 kts | 135° |
| 2026-05-05 15:29 | 46.71105 | 10.21765 | 36917 ft | 452 kts | 135° |
| 2026-05-05 15:30 | 46.67109 | 10.28798 | 36954 ft | 449 kts | 135° |
| 2026-05-05 15:30 | 46.63127 | 10.35784 | 36942 ft | 447 kts | 135° |
| 2026-05-05 15:31 | 46.59167 | 10.42741 | 36933 ft | 447 kts | 134° |
| 2026-05-05 15:31 | 46.55710 | 10.50315 | 36939 ft | 450 kts | 127° |
| 2026-05-05 15:32 | 46.52472 | 10.58013 | 36918 ft | 450 kts | 127° |
| 2026-05-05 15:32 | 46.49139 | 10.65842 | 36980 ft | 457 kts | 127° |
| 2026-05-05 15:33 | 46.45735 | 10.73707 | 36973 ft | 461 kts | 127° |
| 2026-05-05 15:33 | 46.42322 | 10.81532 | 36974 ft | 463 kts | 127° |
| 2026-05-05 15:34 | 46.38857 | 10.89422 | 36991 ft | 465 kts | 127° |
| 2026-05-05 15:34 | 46.35384 | 10.97319 | 37011 ft | 464 kts | 127° |
| 2026-05-05 15:35 | 46.31898 | 11.05231 | 37032 ft | 461 kts | 127° |
| 2026-05-05 15:35 | 46.28472 | 11.12982 | 37011 ft | 460 kts | 127° |
| 2026-05-05 15:36 | 46.25036 | 11.20738 | 37014 ft | 457 kts | 127° |
| 2026-05-05 15:36 | 46.21606 | 11.28453 | 36980 ft | 456 kts | 127° |
| 2026-05-05 15:37 | 46.18176 | 11.36148 | 36982 ft | 456 kts | 127° |
| 2026-05-05 15:37 | 46.14737 | 11.43839 | 36995 ft | 457 kts | 127° |
| 2026-05-05 15:38 | 46.11296 | 11.51521 | 37023 ft | 456 kts | 127° |
| 2026-05-05 15:38 | 46.07845 | 11.59197 | 37001 ft | 457 kts | 127° |
| 2026-05-05 15:39 | 46.04385 | 11.66875 | 37015 ft | 458 kts | 127° |
| 2026-05-05 15:39 | 46.00910 | 11.74567 | 37001 ft | 459 kts | 127° |
| 2026-05-05 15:40 | 45.97428 | 11.82253 | 37010 ft | 459 kts | 127° |
| 2026-05-05 15:40 | 45.93939 | 11.89931 | 36998 ft | 459 kts | 127° |
| 2026-05-05 15:41 | 45.90446 | 11.97600 | 37007 ft | 459 kts | 127° |
| 2026-05-05 15:41 | 45.86948 | 12.05256 | 37009 ft | 459 kts | 127° |
| 2026-05-05 15:42 | 45.83444 | 12.12906 | 37015 ft | 459 kts | 127° |
| 2026-05-05 15:42 | 45.79933 | 12.20551 | 37013 ft | 459 kts | 127° |
| 2026-05-05 15:43 | 45.76413 | 12.28195 | 36994 ft | 460 kts | 127° |
| 2026-05-05 15:43 | 45.72888 | 12.35828 | 37005 ft | 460 kts | 127° |
| 2026-05-05 15:44 | 45.69380 | 12.43404 | 37000 ft | 460 kts | 127° |
| 2026-05-05 15:44 | 45.65840 | 12.51029 | 36999 ft | 460 kts | 127° |
| 2026-05-05 15:45 | 45.62272 | 12.58626 | 36993 ft | 460 kts | 129° |
| 2026-05-05 15:45 | 45.58545 | 12.66052 | 36992 ft | 460 kts | 130° |
| 2026-05-05 15:46 | 45.54780 | 12.73434 | 36990 ft | 460 kts | 130° |
| 2026-05-05 15:46 | 45.51028 | 12.80828 | 36988 ft | 460 kts | 129° |
| 2026-05-05 15:46 | 45.49142 | 12.84554 | 36559 ft | 466 kts | 129° |
| 2026-05-05 15:47 | 45.47251 | 12.88292 | 36073 ft | 464 kts | 129° |
| 2026-05-05 15:47 | 45.45978 | 12.90810 | 35683 ft | 463 kts | 129° |
| 2026-05-05 15:47 | 45.43481 | 12.95743 | 34883 ft | 464 kts | 129° |
| 2026-05-05 15:47 | 45.41593 | 12.99466 | 34268 ft | 465 kts | 130° |
| 2026-05-05 15:48 | 45.39699 | 13.03194 | 33598 ft | 466 kts | 130° |
| 2026-05-05 15:48 | 45.37800 | 13.06928 | 32896 ft | 466 kts | 130° |
| 2026-05-05 15:48 | 45.35895 | 13.10668 | 32216 ft | 467 kts | 130° |
| 2026-05-05 15:48 | 45.33989 | 13.14406 | 31538 ft | 467 kts | 130° |
| 2026-05-05 15:49 | 45.32079 | 13.18145 | 30850 ft | 468 kts | 130° |
| 2026-05-05 15:49 | 45.30164 | 13.21890 | 30216 ft | 468 kts | 130° |
| 2026-05-05 15:49 | 45.28261 | 13.25608 | 29679 ft | 463 kts | 129° |
| 2026-05-05 15:49 | 45.26378 | 13.29285 | 29147 ft | 458 kts | 129° |
| 2026-05-05 15:50 | 45.24515 | 13.32919 | 28645 ft | 453 kts | 129° |
| 2026-05-05 15:50 | 45.22670 | 13.36509 | 28148 ft | 448 kts | 129° |
| 2026-05-05 15:50 | 45.20843 | 13.40060 | 27636 ft | 444 kts | 129° |
| 2026-05-05 15:50 | 45.19032 | 13.43575 | 27151 ft | 440 kts | 130° |
| 2026-05-05 15:51 | 45.17234 | 13.47057 | 26640 ft | 436 kts | 130° |
| 2026-05-05 15:51 | 45.15449 | 13.50514 | 26163 ft | 433 kts | 130° |
| 2026-05-05 15:51 | 45.13678 | 13.53936 | 25689 ft | 430 kts | 130° |
| 2026-05-05 15:51 | 45.11916 | 13.57339 | 25194 ft | 427 kts | 130° |
| 2026-05-05 15:52 | 45.10165 | 13.60714 | 24733 ft | 424 kts | 130° |
| 2026-05-05 15:52 | 45.08423 | 13.64070 | 24278 ft | 422 kts | 130° |
| 2026-05-05 15:52 | 45.06690 | 13.67404 | 23808 ft | 420 kts | 130° |
| 2026-05-05 15:52 | 45.04961 | 13.70727 | 23276 ft | 419 kts | 130° |
| 2026-05-05 15:53 | 45.03239 | 13.74032 | 22752 ft | 416 kts | 130° |
| 2026-05-05 15:53 | 45.01528 | 13.77314 | 22265 ft | 413 kts | 130° |
| 2026-05-05 15:53 | 44.99829 | 13.80570 | 21814 ft | 410 kts | 130° |
| 2026-05-05 15:53 | 44.98140 | 13.83801 | 21340 ft | 407 kts | 130° |
| 2026-05-05 15:54 | 44.96462 | 13.87008 | 20868 ft | 404 kts | 130° |
| 2026-05-05 15:54 | 44.94798 | 13.90187 | 20411 ft | 401 kts | 130° |
| 2026-05-05 15:54 | 44.93165 | 13.93301 | 19973 ft | 398 kts | 130° |
| 2026-05-05 15:54 | 44.91522 | 13.96429 | 19525 ft | 396 kts | 130° |
| 2026-05-05 15:55 | 44.89888 | 13.99538 | 19075 ft | 394 kts | 130° |
| 2026-05-05 15:55 | 44.88260 | 14.02632 | 18617 ft | 392 kts | 130° |
| 2026-05-05 15:55 | 44.86640 | 14.05708 | 18164 ft | 390 kts | 130° |
| 2026-05-05 15:55 | 44.85027 | 14.08767 | 17657 ft | 387 kts | 130° |
| 2026-05-05 15:56 | 44.83425 | 14.11802 | 17191 ft | 384 kts | 130° |
| 2026-05-05 15:56 | 44.81836 | 14.14810 | 16739 ft | 381 kts | 130° |
| 2026-05-05 15:56 | 44.80258 | 14.17795 | 16301 ft | 379 kts | 130° |
| 2026-05-05 15:56 | 44.78690 | 14.20757 | 15863 ft | 376 kts | 130° |
| 2026-05-05 15:57 | 44.77129 | 14.23701 | 15426 ft | 374 kts | 130° |
| 2026-05-05 15:57 | 44.75581 | 14.26619 | 15005 ft | 371 kts | 130° |
| 2026-05-05 15:57 | 44.74038 | 14.29524 | 14578 ft | 369 kts | 130° |
| 2026-05-05 15:57 | 44.72503 | 14.32411 | 14154 ft | 368 kts | 130° |
| 2026-05-05 15:58 | 44.70971 | 14.35289 | 13703 ft | 367 kts | 130° |
| 2026-05-05 15:58 | 44.69445 | 14.38153 | 13228 ft | 365 kts | 130° |
| 2026-05-05 15:58 | 44.67928 | 14.40999 | 12774 ft | 363 kts | 130° |
| 2026-05-05 15:58 | 44.66419 | 14.43826 | 12339 ft | 360 kts | 130° |
| 2026-05-05 15:59 | 44.64918 | 14.46636 | 11899 ft | 358 kts | 130° |
| 2026-05-05 15:59 | 44.63426 | 14.49426 | 11475 ft | 356 kts | 129° |
| 2026-05-05 15:59 | 44.61943 | 14.52196 | 11057 ft | 354 kts | 129° |
| 2026-05-05 15:59 | 44.60475 | 14.54937 | 10808 ft | 347 kts | 130° |
| 2026-05-05 16:00 | 44.59047 | 14.57604 | 10652 ft | 337 kts | 130° |
| 2026-05-05 16:00 | 44.57658 | 14.60194 | 10504 ft | 328 kts | 130° |
| 2026-05-05 16:00 | 44.56304 | 14.62717 | 10365 ft | 319 kts | 130° |
| 2026-05-05 16:00 | 44.55004 | 14.65136 | 10240 ft | 311 kts | 130° |
| 2026-05-05 16:01 | 44.53701 | 14.67556 | 10103 ft | 303 kts | 130° |
| 2026-05-05 16:01 | 44.52453 | 14.69872 | 9809 ft | 302 kts | 130° |
| 2026-05-05 16:01 | 44.51188 | 14.72216 | 9508 ft | 301 kts | 130° |
| 2026-05-05 16:01 | 44.49931 | 14.74543 | 9213 ft | 299 kts | 130° |
| 2026-05-05 16:02 | 44.48679 | 14.76861 | 8924 ft | 297 kts | 130° |
| 2026-05-05 16:02 | 44.47435 | 14.79162 | 8636 ft | 296 kts | 130° |
| 2026-05-05 16:02 | 44.46196 | 14.81453 | 8346 ft | 294 kts | 130° |
| 2026-05-05 16:02 | 44.44965 | 14.83728 | 8066 ft | 292 kts | 130° |
| 2026-05-05 16:03 | 44.43740 | 14.85990 | 7792 ft | 291 kts | 130° |
| 2026-05-05 16:03 | 44.42521 | 14.88240 | 7512 ft | 289 kts | 130° |
| 2026-05-05 16:03 | 44.41309 | 14.90475 | 7230 ft | 288 kts | 130° |
| 2026-05-05 16:03 | 44.40102 | 14.92700 | 6945 ft | 286 kts | 130° |
| 2026-05-05 16:04 | 44.38900 | 14.94912 | 6673 ft | 285 kts | 130° |
| 2026-05-05 16:04 | 44.37706 | 14.97109 | 6400 ft | 283 kts | 130° |
| 2026-05-05 16:04 | 44.36515 | 14.99297 | 6113 ft | 282 kts | 130° |
| 2026-05-05 16:04 | 44.35313 | 15.01435 | 5885 ft | 278 kts | 134° |
| 2026-05-05 16:05 | 44.33954 | 15.03372 | 5521 ft | 278 kts | 140° |
| 2026-05-05 16:05 | 44.32554 | 15.05230 | 5214 ft | 277 kts | 140° |
| 2026-05-05 16:05 | 44.31157 | 15.07081 | 4909 ft | 276 kts | 140° |
| 2026-05-05 16:05 | 44.29772 | 15.08930 | 4615 ft | 275 kts | 139° |
| 2026-05-05 16:06 | 44.28413 | 15.10762 | 4298 ft | 268 kts | 139° |
| 2026-05-05 16:06 | 44.27096 | 15.12551 | 4003 ft | 261 kts | 138° |
| 2026-05-05 16:06 | 44.25837 | 15.14265 | 3846 ft | 249 kts | 138° |
| 2026-05-05 16:06 | 44.24645 | 15.15891 | 3749 ft | 230 kts | 138° |
| 2026-05-05 16:07 | 44.23544 | 15.17403 | 3554 ft | 216 kts | 137° |
| 2026-05-05 16:07 | 44.22489 | 15.18841 | 3289 ft | 208 kts | 137° |
| 2026-05-05 16:07 | 44.21468 | 15.20225 | 3012 ft | 202 kts | 137° |
| 2026-05-05 16:07 | 44.20478 | 15.21568 | 2733 ft | 196 kts | 137° |
| 2026-05-05 16:08 | 44.19519 | 15.22869 | 2456 ft | 189 kts | 136° |
| 2026-05-05 16:08 | 44.18595 | 15.24123 | 2185 ft | 181 kts | 136° |
| 2026-05-05 16:08 | 44.17726 | 15.25303 | 1949 ft | 169 kts | 134° |
| 2026-05-05 16:08 | 44.16915 | 15.26406 | 1729 ft | 155 kts | 134° |
| 2026-05-05 16:09 | 44.16166 | 15.27422 | 1544 ft | 148 kts | 135° |
| 2026-05-05 16:09 | 44.15444 | 15.28405 | 1356 ft | 141 kts | 136° |
| 2026-05-05 16:09 | 44.14760 | 15.29340 | 1177 ft | 137 kts | 134° |
| 2026-05-05 16:09 | 44.14088 | 15.30277 | 1034 ft | 138 kts | 133° |
| 2026-05-05 16:10 | 44.13390 | 15.31225 | 849 ft | 142 kts | 135° |
| 2026-05-05 16:10 | 44.12671 | 15.32183 | 653 ft | 142 kts | 134° |
| 2026-05-05 16:10 | 44.11969 | 15.33133 | 437 ft | 140 kts | 134° |
| 2026-05-05 16:10 | 44.11276 | 15.34067 | 310 ft | 131 kts | 134° |
| 2026-05-05 16:11 | 44.10697 | 15.34849 | 305 ft | 96 kts | 136° |
| 2026-05-05 16:11 | 44.10020 | 15.35707 | 305 ft | 18 kts | 208° |
| 2026-05-05 16:12 | 44.09964 | 15.35626 | 302 ft | 17 kts | 226° |
| 2026-05-05 16:12 | 44.09799 | 15.35537 | 297 ft | 12 kts | 179° |
| 2026-05-05 16:13 | 44.09642 | 15.35466 | 299 ft | 8 kts | 306° |
| 2026-05-05 16:13 | 44.09667 | 15.35440 | 299 ft | 3 kts | 326° |
| 2026-05-05 16:13 | 44.09672 | 15.35435 | 299 ft | 0 kts | 326° |